sensor_id;sensor_type;location;lat;lon;timestamp;pressure;altitude;pressure_sealevel;temperature;humidity
38022;BME280;23832;43.216;27.946;2023-05-31T00:00:41;100739.22;;;22.04;100.00
38022;BME280;23832;43.216;27.946;2023-05-31T00:02:43;100739.06;;;21.94;100.00
38022;BME280;23832;43.216;27.946;2023-05-31T00:04:45;100734.31;;;22.01;100.00
38022;BME280;23832;43.216;27.946;2023-05-31T00:06:48;100738.06;;;22.00;100.00
38022;BME280;23832;43.216;27.946;2023-05-31T00:08:49;100745.31;;;22.00;100.00
38022;BME280;23832;43.216;27.946;2023-05-31T00:10:51;100743.31;;;22.07;100.00
38022;BME280;23832;43.216;27.946;2023-05-31T00:12:53;100742.47;;;22.06;100.00
38022;BME280;23832;43.216;27.946;2023-05-31T00:14:54;100746.06;;;21.95;100.00
38022;BME280;23832;43.216;27.946;2023-05-31T00:16:56;100742.00;;;21.76;100.00
38022;BME280;23832;43.216;27.946;2023-05-31T00:18:58;100739.75;;;21.85;100.00
38022;BME280;23832;43.216;27.946;2023-05-31T00:21:00;100736.41;;;21.94;100.00
38022;BME280;23832;43.216;27.946;2023-05-31T00:23:03;100743.88;;;21.75;100.00
38022;BME280;23832;43.216;27.946;2023-05-31T00:25:05;100747.44;;;21.81;100.00
38022;BME280;23832;43.216;27.946;2023-05-31T00:27:07;100742.81;;;21.93;100.00
38022;BME280;23832;43.216;27.946;2023-05-31T00:29:08;100742.56;;;21.95;100.00
38022;BME280;23832;43.216;27.946;2023-05-31T00:31:10;100741.19;;;22.09;100.00
38022;BME280;23832;43.216;27.946;2023-05-31T00:33:12;100735.59;;;21.94;100.00
38022;BME280;23832;43.216;27.946;2023-05-31T00:35:13;100743.44;;;21.83;100.00
38022;BME280;23832;43.216;27.946;2023-05-31T00:37:16;100746.47;;;21.87;100.00
38022;BME280;23832;43.216;27.946;2023-05-31T00:39:19;100741.75;;;21.94;100.00
38022;BME280;23832;43.216;27.946;2023-05-31T00:41:21;100744.19;;;21.79;100.00
38022;BME280;23832;43.216;27.946;2023-05-31T00:43:23;100746.22;;;21.72;100.00
38022;BME280;23832;43.216;27.946;2023-05-31T00:45:25;100747.69;;;21.79;100.00
38022;BME280;23832;43.216;27.946;2023-05-31T00:47:26;100752.41;;;21.89;100.00
38022;BME280;23832;43.216;27.946;2023-05-31T00:49:28;100751.44;;;21.62;100.00
38022;BME280;23832;43.216;27.946;2023-05-31T00:51:30;100748.50;;;21.80;100.00
38022;BME280;23832;43.216;27.946;2023-05-31T00:53:32;100748.34;;;21.70;100.00
38022;BME280;23832;43.216;27.946;2023-05-31T00:55:36;100747.78;;;21.85;100.00
38022;BME280;23832;43.216;27.946;2023-05-31T00:57:38;100749.06;;;21.65;100.00
38022;BME280;23832;43.216;27.946;2023-05-31T00:59:40;100751.28;;;21.68;100.00
38022;BME280;23832;43.216;27.946;2023-05-31T01:01:42;100753.88;;;21.80;100.00
38022;BME280;23832;43.216;27.946;2023-05-31T01:03:44;100750.53;;;21.90;100.00
38022;BME280;23832;43.216;27.946;2023-05-31T01:05:46;100746.47;;;21.87;100.00
38022;BME280;23832;43.216;27.946;2023-05-31T01:07:47;100754.03;;;21.90;100.00
38022;BME280;23832;43.216;27.946;2023-05-31T01:09:50;100747.59;;;21.91;100.00
38022;BME280;23832;43.216;27.946;2023-05-31T01:11:56;100748.50;;;21.97;100.00
38022;BME280;23832;43.216;27.946;2023-05-31T01:14:01;100752.50;;;21.94;100.00
38022;BME280;23832;43.216;27.946;2023-05-31T01:16:06;100744.44;;;21.94;100.00
38022;BME280;23832;43.216;27.946;2023-05-31T01:18:13;100754.53;;;21.87;100.00
38022;BME280;23832;43.216;27.946;2023-05-31T01:20:20;100760.69;;;21.71;100.00
38022;BME280;23832;43.216;27.946;2023-05-31T01:22:32;100759.97;;;21.59;100.00
38022;BME280;23832;43.216;27.946;2023-05-31T01:24:39;100751.59;;;21.72;100.00
38022;BME280;23832;43.216;27.946;2023-05-31T01:26:46;100754.50;;;21.53;100.00
38022;BME280;23832;43.216;27.946;2023-05-31T01:28:50;100746.56;;;21.59;100.00
38022;BME280;23832;43.216;27.946;2023-05-31T01:30:53;100762.47;;;21.48;100.00
38022;BME280;23832;43.216;27.946;2023-05-31T01:32:55;100751.78;;;21.37;100.00
38022;BME280;23832;43.216;27.946;2023-05-31T01:34:57;100755.72;;;21.46;100.00
38022;BME280;23832;43.216;27.946;2023-05-31T01:36:59;100754.47;;;21.37;100.00
38022;BME280;23832;43.216;27.946;2023-05-31T01:39:00;100754.72;;;21.35;100.00
38022;BME280;23832;43.216;27.946;2023-05-31T01:41:03;100753.81;;;21.30;100.00
38022;BME280;23832;43.216;27.946;2023-05-31T01:43:07;100754.22;;;21.38;100.00
38022;BME280;23832;43.216;27.946;2023-05-31T01:45:10;100755.56;;;21.24;100.00
38022;BME280;23832;43.216;27.946;2023-05-31T01:47:13;100749.53;;;21.17;100.00
38022;BME280;23832;43.216;27.946;2023-05-31T01:49:16;100747.84;;;21.39;100.00
38022;BME280;23832;43.216;27.946;2023-05-31T01:51:18;100746.00;;;21.28;100.00
38022;BME280;23832;43.216;27.946;2023-05-31T01:53:20;100748.88;;;21.38;100.00
38022;BME280;23832;43.216;27.946;2023-05-31T01:55:22;100754.44;;;21.48;100.00
38022;BME280;23832;43.216;27.946;2023-05-31T01:57:24;100756.94;;;21.55;100.00
38022;BME280;23832;43.216;27.946;2023-05-31T01:59:28;100759.69;;;21.43;100.00
38022;BME280;23832;43.216;27.946;2023-05-31T02:01:31;100754.47;;;21.37;100.00
38022;BME280;23832;43.216;27.946;2023-05-31T02:03:33;100753.38;;;21.49;100.00
38022;BME280;23832;43.216;27.946;2023-05-31T02:05:35;100761.25;;;21.39;100.00
38022;BME280;23832;43.216;27.946;2023-05-31T02:07:37;100757.13;;;21.48;100.00
38022;BME280;23832;43.216;27.946;2023-05-31T02:09:38;100763.53;;;21.64;100.00
38022;BME280;23832;43.216;27.946;2023-05-31T02:11:40;100758.81;;;21.54;100.00
38022;BME280;23832;43.216;27.946;2023-05-31T02:13:42;100760.94;;;21.52;100.00
38022;BME280;23832;43.216;27.946;2023-05-31T02:15:45;100762.47;;;21.65;100.00
38022;BME280;23832;43.216;27.946;2023-05-31T02:17:47;100760.34;;;21.34;100.00
38022;BME280;23832;43.216;27.946;2023-05-31T02:19:51;100753.19;;;21.39;100.00
38022;BME280;23832;43.216;27.946;2023-05-31T02:21:53;100752.97;;;21.74;100.00
38022;BME280;23832;43.216;27.946;2023-05-31T02:23:54;100756.25;;;21.76;100.00
38022;BME280;23832;43.216;27.946;2023-05-31T02:25:57;100763.22;;;21.61;100.00
38022;BME280;23832;43.216;27.946;2023-05-31T02:27:59;100759.88;;;21.25;100.00
38022;BME280;23832;43.216;27.946;2023-05-31T02:30:00;100760.19;;;21.40;100.00
38022;BME280;23832;43.216;27.946;2023-05-31T02:32:04;100750.88;;;21.60;100.00
38022;BME280;23832;43.216;27.946;2023-05-31T02:34:06;100762.53;;;21.37;100.00
38022;BME280;23832;43.216;27.946;2023-05-31T02:36:08;100761.03;;;21.29;100.00
38022;BME280;23832;43.216;27.946;2023-05-31T02:38:11;100764.09;;;21.21;100.00
38022;BME280;23832;43.216;27.946;2023-05-31T02:40:13;100763.94;;;21.56;100.00
38022;BME280;23832;43.216;27.946;2023-05-31T02:42:15;100762.16;;;21.62;100.00
38022;BME280;23832;43.216;27.946;2023-05-31T02:44:16;100763.38;;;21.54;100.00
38022;BME280;23832;43.216;27.946;2023-05-31T02:46:19;100763.94;;;21.56;100.00
38022;BME280;23832;43.216;27.946;2023-05-31T02:48:22;100766.72;;;21.78;100.00
38022;BME280;23832;43.216;27.946;2023-05-31T02:50:24;100762.09;;;21.90;100.00
38022;BME280;23832;43.216;27.946;2023-05-31T02:52:25;100760.56;;;21.94;100.00
38022;BME280;23832;43.216;27.946;2023-05-31T02:54:27;100762.00;;;22.02;100.00
38022;BME280;23832;43.216;27.946;2023-05-31T02:56:29;100767.22;;;22.08;100.00
38022;BME280;23832;43.216;27.946;2023-05-31T02:58:31;100767.22;;;22.08;100.00
38022;BME280;23832;43.216;27.946;2023-05-31T03:00:32;100765.75;;;22.18;100.00
38022;BME280;23832;43.216;27.946;2023-05-31T03:02:35;100765.91;;;22.28;100.00
38022;BME280;23832;43.216;27.946;2023-05-31T03:04:38;100762.81;;;22.19;100.00
38022;BME280;23832;43.216;27.946;2023-05-31T03:06:42;100763.22;;;22.28;100.00
38022;BME280;23832;43.216;27.946;2023-05-31T03:08:43;100770.28;;;22.34;100.00
38022;BME280;23832;43.216;27.946;2023-05-31T03:10:45;100771.09;;;22.34;100.00
38022;BME280;23832;43.216;27.946;2023-05-31T03:12:48;100776.34;;;22.07;100.00
38022;BME280;23832;43.216;27.946;2023-05-31T03:14:50;100776.16;;;21.97;100.00
38022;BME280;23832;43.216;27.946;2023-05-31T03:16:52;100785.78;;;21.93;100.00
38022;BME280;23832;43.216;27.946;2023-05-31T03:18:54;100784.78;;;21.99;100.00
38022;BME280;23832;43.216;27.946;2023-05-31T03:20:57;100784.94;;;21.76;100.00
38022;BME280;23832;43.216;27.946;2023-05-31T03:22:59;100791.03;;;21.88;100.00
38022;BME280;23832;43.216;27.946;2023-05-31T03:25:00;100785.84;;;21.98;100.00
38022;BME280;23832;43.216;27.946;2023-05-31T03:27:02;100786.59;;;21.94;100.00
38022;BME280;23832;43.216;27.946;2023-05-31T03:29:04;100786.00;;;22.25;100.00
38022;BME280;23832;43.216;27.946;2023-05-31T03:31:06;100785.09;;;22.36;100.00
38022;BME280;23832;43.216;27.946;2023-05-31T03:33:08;100785.34;;;22.74;100.00
38022;BME280;23832;43.216;27.946;2023-05-31T03:35:10;100781.47;;;22.86;100.00
38022;BME280;23832;43.216;27.946;2023-05-31T03:37:13;100781.91;;;23.00;100.00
38022;BME280;23832;43.216;27.946;2023-05-31T03:39:15;100783.91;;;23.10;100.00
38022;BME280;23832;43.216;27.946;2023-05-31T03:41:16;100782.59;;;23.12;100.00
38022;BME280;23832;43.216;27.946;2023-05-31T03:43:18;100783.47;;;22.96;100.00
38022;BME280;23832;43.216;27.946;2023-05-31T03:45:20;100779.34;;;23.10;100.00
38022;BME280;23832;43.216;27.946;2023-05-31T03:47:22;100783.34;;;23.08;100.00
38022;BME280;23832;43.216;27.946;2023-05-31T03:49:23;100786.66;;;23.15;100.00
38022;BME280;23832;43.216;27.946;2023-05-31T03:51:25;100788.34;;;23.21;100.00
38022;BME280;23832;43.216;27.946;2023-05-31T03:53:29;100788.72;;;23.35;100.00
38022;BME280;23832;43.216;27.946;2023-05-31T03:55:30;100787.78;;;23.46;100.00
38022;BME280;23832;43.216;27.946;2023-05-31T03:57:32;100795.69;;;23.58;100.00
38022;BME280;23832;43.216;27.946;2023-05-31T03:59:34;100796.09;;;23.71;100.00
38022;BME280;23832;43.216;27.946;2023-05-31T04:01:37;100794.53;;;23.75;100.00
38022;BME280;23832;43.216;27.946;2023-05-31T04:03:38;100799.47;;;23.84;100.00
38022;BME280;23832;43.216;27.946;2023-05-31T04:05:41;100803.31;;;23.93;100.00
38022;BME280;23832;43.216;27.946;2023-05-31T04:07:42;100803.31;;;23.98;100.00
38022;BME280;23832;43.216;27.946;2023-05-31T04:09:45;100802.78;;;23.96;100.00
38022;BME280;23832;43.216;27.946;2023-05-31T04:11:47;100798.47;;;23.95;100.00
38022;BME280;23832;43.216;27.946;2023-05-31T04:13:49;100805.00;;;24.04;100.00
38022;BME280;23832;43.216;27.946;2023-05-31T04:15:50;100807.56;;;24.26;100.00
38022;BME280;23832;43.216;27.946;2023-05-31T04:17:52;100805.75;;;24.31;100.00
38022;BME280;23832;43.216;27.946;2023-05-31T04:19:54;100798.38;;;24.54;100.00
38022;BME280;23832;43.216;27.946;2023-05-31T04:21:55;100798.16;;;24.71;100.00
38022;BME280;23832;43.216;27.946;2023-05-31T04:23:57;100802.22;;;24.73;100.00
38022;BME280;23832;43.216;27.946;2023-05-31T04:26:00;100799.34;;;24.95;100.00
38022;BME280;23832;43.216;27.946;2023-05-31T04:28:02;100802.28;;;24.88;100.00
38022;BME280;23832;43.216;27.946;2023-05-31T04:30:06;100809.59;;;24.93;100.00
38022;BME280;23832;43.216;27.946;2023-05-31T04:32:08;100802.13;;;25.10;98.02
38022;BME280;23832;43.216;27.946;2023-05-31T04:34:09;100807.25;;;25.12;98.14
38022;BME280;23832;43.216;27.946;2023-05-31T04:36:18;100809.44;;;25.25;95.97
38022;BME280;23832;43.216;27.946;2023-05-31T04:38:20;100815.09;;;25.24;96.07
38022;BME280;23832;43.216;27.946;2023-05-31T04:40:24;100810.84;;;25.38;95.74
38022;BME280;23832;43.216;27.946;2023-05-31T04:42:27;100812.97;;;25.41;98.93
38022;BME280;23832;43.216;27.946;2023-05-31T04:44:29;100809.78;;;25.69;90.80
38022;BME280;23832;43.216;27.946;2023-05-31T04:46:31;100816.56;;;25.77;92.29
38022;BME280;23832;43.216;27.946;2023-05-31T04:48:33;100818.75;;;26.00;87.66
38022;BME280;23832;43.216;27.946;2023-05-31T04:50:35;100819.00;;;25.94;87.82
38022;BME280;23832;43.216;27.946;2023-05-31T04:52:37;100818.72;;;26.06;87.00
38022;BME280;23832;43.216;27.946;2023-05-31T04:54:40;100820.09;;;26.08;84.12
38022;BME280;23832;43.216;27.946;2023-05-31T04:56:42;100824.13;;;26.26;82.63
38022;BME280;23832;43.216;27.946;2023-05-31T04:58:45;100830.06;;;26.38;81.10
38022;BME280;23832;43.216;27.946;2023-05-31T05:00:47;100827.34;;;26.48;78.91
38022;BME280;23832;43.216;27.946;2023-05-31T05:02:49;100831.13;;;26.37;78.14
38022;BME280;23832;43.216;27.946;2023-05-31T05:04:51;100831.06;;;26.68;76.22
38022;BME280;23832;43.216;27.946;2023-05-31T05:06:53;100834.34;;;26.70;75.15
38022;BME280;23832;43.216;27.946;2023-05-31T05:08:54;100829.66;;;26.91;74.63
38022;BME280;23832;43.216;27.946;2023-05-31T05:10:57;100833.63;;;27.19;71.29
38022;BME280;23832;43.216;27.946;2023-05-31T05:12:59;100835.97;;;27.30;70.46
38022;BME280;23832;43.216;27.946;2023-05-31T05:15:02;100837.56;;;27.36;70.86
38022;BME280;23832;43.216;27.946;2023-05-31T05:17:04;100837.22;;;27.48;69.36
38022;BME280;23832;43.216;27.946;2023-05-31T05:19:06;100836.13;;;27.54;69.04
38022;BME280;23832;43.216;27.946;2023-05-31T05:21:08;100834.94;;;27.70;67.88
38022;BME280;23832;43.216;27.946;2023-05-31T05:23:09;100837.97;;;27.98;66.78
38022;BME280;23832;43.216;27.946;2023-05-31T05:25:11;100839.22;;;28.11;66.46
38022;BME280;23832;43.216;27.946;2023-05-31T05:27:14;100843.69;;;28.25;67.75
38022;BME280;23832;43.216;27.946;2023-05-31T05:29:16;100846.69;;;28.24;69.23
38022;BME280;23832;43.216;27.946;2023-05-31T05:31:19;100842.84;;;28.59;66.31
38022;BME280;23832;43.216;27.946;2023-05-31T05:33:21;100847.22;;;28.55;67.76
38022;BME280;23832;43.216;27.946;2023-05-31T05:35:22;100843.88;;;28.63;67.46
38022;BME280;23832;43.216;27.946;2023-05-31T05:37:24;100847.88;;;28.71;65.19
38022;BME280;23832;43.216;27.946;2023-05-31T05:39:26;100851.84;;;28.78;65.62
38022;BME280;23832;43.216;27.946;2023-05-31T05:41:28;100849.44;;;28.77;64.65
38022;BME280;23832;43.216;27.946;2023-05-31T05:43:30;100846.97;;;28.75;63.35
38022;BME280;23832;43.216;27.946;2023-05-31T05:45:31;100846.53;;;28.68;62.28
38022;BME280;23832;43.216;27.946;2023-05-31T05:47:35;100848.38;;;28.73;63.15
38022;BME280;23832;43.216;27.946;2023-05-31T05:49:37;100847.31;;;28.98;61.61
38022;BME280;23832;43.216;27.946;2023-05-31T05:51:38;100843.75;;;29.21;59.87
38022;BME280;23832;43.216;27.946;2023-05-31T05:53:41;100849.59;;;29.28;58.36
38022;BME280;23832;43.216;27.946;2023-05-31T05:55:47;100851.03;;;29.02;58.45
38022;BME280;23832;43.216;27.946;2023-05-31T05:57:49;100843.50;;;28.99;58.77
38022;BME280;23832;43.216;27.946;2023-05-31T05:59:51;100852.25;;;29.15;56.60
38022;BME280;23832;43.216;27.946;2023-05-31T06:01:53;100847.84;;;29.37;54.63
38022;BME280;23832;43.216;27.946;2023-05-31T06:03:57;100851.59;;;29.79;53.58
38022;BME280;23832;43.216;27.946;2023-05-31T06:05:58;100848.13;;;29.92;51.32
38022;BME280;23832;43.216;27.946;2023-05-31T06:08:00;100842.81;;;30.01;51.90
38022;BME280;23832;43.216;27.946;2023-05-31T06:10:02;100855.53;;;30.38;50.44
38022;BME280;23832;43.216;27.946;2023-05-31T06:12:05;100849.00;;;30.39;50.07
38022;BME280;23832;43.216;27.946;2023-05-31T06:14:07;100848.84;;;30.17;50.06
38022;BME280;23832;43.216;27.946;2023-05-31T06:16:09;100849.69;;;30.31;49.43
38022;BME280;23832;43.216;27.946;2023-05-31T06:18:11;100847.28;;;30.43;48.71
38022;BME280;23832;43.216;27.946;2023-05-31T06:20:16;100848.53;;;30.78;48.09
38022;BME280;23832;43.216;27.946;2023-05-31T06:22:18;100846.91;;;31.05;47.39
38022;BME280;23832;43.216;27.946;2023-05-31T06:24:20;100854.34;;;30.99;47.63
38022;BME280;23832;43.216;27.946;2023-05-31T06:26:22;100850.41;;;31.05;47.11
38022;BME280;23832;43.216;27.946;2023-05-31T06:28:24;100847.06;;;31.08;46.61
38022;BME280;23832;43.216;27.946;2023-05-31T06:30:26;100849.31;;;31.06;46.44
38022;BME280;23832;43.216;27.946;2023-05-31T06:32:27;100851.50;;;31.32;45.47
38022;BME280;23832;43.216;27.946;2023-05-31T06:34:29;100852.84;;;31.57;45.44
38022;BME280;23832;43.216;27.946;2023-05-31T06:36:32;100853.78;;;31.75;44.68
38022;BME280;23832;43.216;27.946;2023-05-31T06:38:35;100855.59;;;31.79;45.04
38022;BME280;23832;43.216;27.946;2023-05-31T06:40:37;100852.94;;;31.88;44.22
38022;BME280;23832;43.216;27.946;2023-05-31T06:42:39;100854.22;;;32.35;43.10
38022;BME280;23832;43.216;27.946;2023-05-31T06:44:41;100855.41;;;31.98;43.92
38022;BME280;23832;43.216;27.946;2023-05-31T06:46:43;100862.25;;;31.87;44.34
38022;BME280;23832;43.216;27.946;2023-05-31T06:48:45;100859.09;;;31.94;43.27
38022;BME280;23832;43.216;27.946;2023-05-31T06:50:47;100860.13;;;32.06;41.17
38022;BME280;23832;43.216;27.946;2023-05-31T06:52:50;100852.44;;;32.31;40.91
38022;BME280;23832;43.216;27.946;2023-05-31T06:54:52;100856.13;;;32.74;39.74
38022;BME280;23832;43.216;27.946;2023-05-31T06:56:54;100847.72;;;33.02;39.58
38022;BME280;23832;43.216;27.946;2023-05-31T06:58:56;100851.88;;;32.91;40.19
38022;BME280;23832;43.216;27.946;2023-05-31T07:00:58;100856.28;;;33.18;40.02
38022;BME280;23832;43.216;27.946;2023-05-31T07:03:00;100854.53;;;33.65;38.85
38022;BME280;23832;43.216;27.946;2023-05-31T07:05:02;100847.00;;;33.79;39.24
38022;BME280;23832;43.216;27.946;2023-05-31T07:07:04;100853.41;;;34.01;39.08
38022;BME280;23832;43.216;27.946;2023-05-31T07:09:08;100853.56;;;33.78;39.08
38022;BME280;23832;43.216;27.946;2023-05-31T07:11:09;100848.88;;;34.05;37.45
38022;BME280;23832;43.216;27.946;2023-05-31T07:13:12;100848.47;;;34.41;36.60
38022;BME280;23832;43.216;27.946;2023-05-31T07:15:14;100854.44;;;34.34;37.74
38022;BME280;23832;43.216;27.946;2023-05-31T07:17:16;100854.53;;;34.00;36.93
38022;BME280;23832;43.216;27.946;2023-05-31T07:19:17;100845.91;;;34.45;36.74
38022;BME280;23832;43.216;27.946;2023-05-31T07:21:19;100849.28;;;34.41;35.61
38022;BME280;23832;43.216;27.946;2023-05-31T07:23:21;100846.47;;;34.59;34.09
38022;BME280;23832;43.216;27.946;2023-05-31T07:25:25;100851.22;;;35.09;33.19
38022;BME280;23832;43.216;27.946;2023-05-31T07:27:26;100851.09;;;34.67;33.70
38022;BME280;23832;43.216;27.946;2023-05-31T07:29:28;100854.16;;;35.24;31.34
38022;BME280;23832;43.216;27.946;2023-05-31T07:31:30;100847.56;;;35.46;30.29
38022;BME280;23832;43.216;27.946;2023-05-31T07:33:32;100850.97;;;35.43;30.85
38022;BME280;23832;43.216;27.946;2023-05-31T07:35:33;100852.59;;;35.44;30.02
38022;BME280;23832;43.216;27.946;2023-05-31T07:37:35;100845.78;;;35.21;28.20
38022;BME280;23832;43.216;27.946;2023-05-31T07:39:37;100852.78;;;35.60;27.80
38022;BME280;23832;43.216;27.946;2023-05-31T07:41:40;100851.69;;;34.81;28.60
38022;BME280;23832;43.216;27.946;2023-05-31T07:43:43;100842.66;;;35.10;28.13
38022;BME280;23832;43.216;27.946;2023-05-31T07:45:46;100868.06;;;35.19;28.51
38022;BME280;23832;43.216;27.946;2023-05-31T07:47:48;100846.31;;;35.98;27.63
38022;BME280;23832;43.216;27.946;2023-05-31T07:49:51;100851.06;;;36.34;27.19
38022;BME280;23832;43.216;27.946;2023-05-31T07:51:53;100857.00;;;36.24;28.23
38022;BME280;23832;43.216;27.946;2023-05-31T07:53:54;100857.16;;;36.76;27.65
38022;BME280;23832;43.216;27.946;2023-05-31T07:55:56;100852.84;;;36.87;27.89
38022;BME280;23832;43.216;27.946;2023-05-31T07:58:00;100860.25;;;36.99;27.53
38022;BME280;23832;43.216;27.946;2023-05-31T08:00:01;100865.44;;;37.29;27.92
38022;BME280;23832;43.216;27.946;2023-05-31T08:02:05;100858.66;;;36.98;27.64
38022;BME280;23832;43.216;27.946;2023-05-31T08:04:07;100857.47;;;36.75;29.26
38022;BME280;23832;43.216;27.946;2023-05-31T08:06:09;100858.75;;;37.02;28.28
38022;BME280;23832;43.216;27.946;2023-05-31T08:08:10;100858.75;;;36.77;28.45
38022;BME280;23832;43.216;27.946;2023-05-31T08:10:13;100859.56;;;36.53;28.50
38022;BME280;23832;43.216;27.946;2023-05-31T08:12:15;100862.56;;;35.82;27.56
38022;BME280;23832;43.216;27.946;2023-05-31T08:14:18;100859.91;;;36.76;26.81
38022;BME280;23832;43.216;27.946;2023-05-31T08:16:20;100866.59;;;37.28;26.58
38022;BME280;23832;43.216;27.946;2023-05-31T08:18:22;100854.09;;;37.70;27.40
38022;BME280;23832;43.216;27.946;2023-05-31T08:20:23;100859.03;;;36.15;26.59
38022;BME280;23832;43.216;27.946;2023-05-31T08:22:26;100862.53;;;36.73;25.95
38022;BME280;23832;43.216;27.946;2023-05-31T08:24:28;100863.75;;;37.36;26.42
38022;BME280;23832;43.216;27.946;2023-05-31T08:26:29;100860.16;;;37.76;28.95
38022;BME280;23832;43.216;27.946;2023-05-31T08:28:31;100872.84;;;36.76;31.88
38022;BME280;23832;43.216;27.946;2023-05-31T08:30:35;100860.53;;;37.34;28.17
38022;BME280;23832;43.216;27.946;2023-05-31T08:32:36;100863.22;;;36.70;30.40
38022;BME280;23832;43.216;27.946;2023-05-31T08:34:39;100859.31;;;35.26;30.89
38022;BME280;23832;43.216;27.946;2023-05-31T08:36:40;100864.69;;;34.84;30.58
38022;BME280;23832;43.216;27.946;2023-05-31T08:38:42;100856.22;;;35.07;28.89
38022;BME280;23832;43.216;27.946;2023-05-31T08:40:44;100862.66;;;36.52;27.63
38022;BME280;23832;43.216;27.946;2023-05-31T08:42:47;100881.59;;;37.42;26.79
38022;BME280;23832;43.216;27.946;2023-05-31T08:44:49;100862.91;;;37.48;26.87
38022;BME280;23832;43.216;27.946;2023-05-31T08:46:53;100847.50;;;37.31;26.37
38022;BME280;23832;43.216;27.946;2023-05-31T08:49:00;100854.53;;;37.44;25.75
38022;BME280;23832;43.216;27.946;2023-05-31T08:51:03;100841.25;;;38.02;25.19
38022;BME280;23832;43.216;27.946;2023-05-31T08:53:07;100846.97;;;38.41;25.60
38022;BME280;23832;43.216;27.946;2023-05-31T08:55:11;100845.69;;;39.21;23.83
38022;BME280;23832;43.216;27.946;2023-05-31T08:57:13;100848.69;;;38.18;25.58
38022;BME280;23832;43.216;27.946;2023-05-31T08:59:15;100849.03;;;36.80;27.09
38022;BME280;23832;43.216;27.946;2023-05-31T09:01:18;100860.66;;;37.26;26.25
38022;BME280;23832;43.216;27.946;2023-05-31T09:03:21;100850.41;;;38.54;23.94
38022;BME280;23832;43.216;27.946;2023-05-31T09:05:23;100840.13;;;36.58;24.48
38022;BME280;23832;43.216;27.946;2023-05-31T09:07:25;100848.78;;;38.05;24.10
38022;BME280;23832;43.216;27.946;2023-05-31T09:09:27;100848.56;;;37.83;24.96
38022;BME280;23832;43.216;27.946;2023-05-31T09:11:29;100845.28;;;37.77;25.68
38022;BME280;23832;43.216;27.946;2023-05-31T09:13:30;100841.75;;;38.87;25.87
38022;BME280;23832;43.216;27.946;2023-05-31T09:15:35;100844.78;;;38.19;25.44
38022;BME280;23832;43.216;27.946;2023-05-31T09:17:37;100849.78;;;38.45;25.77
38022;BME280;23832;43.216;27.946;2023-05-31T09:19:47;100842.88;;;39.02;26.39
38022;BME280;23832;43.216;27.946;2023-05-31T09:21:51;100841.47;;;39.27;25.62
38022;BME280;23832;43.216;27.946;2023-05-31T09:23:53;100840.31;;;39.28;24.73
38022;BME280;23832;43.216;27.946;2023-05-31T09:25:55;100834.56;;;40.18;23.68
38022;BME280;23832;43.216;27.946;2023-05-31T09:27:57;100851.25;;;38.89;25.05
38022;BME280;23832;43.216;27.946;2023-05-31T09:30:04;100853.47;;;37.09;26.98
38022;BME280;23832;43.216;27.946;2023-05-31T09:32:08;100847.81;;;37.30;26.96
38022;BME280;23832;43.216;27.946;2023-05-31T09:34:23;100844.91;;;36.61;27.01
38022;BME280;23832;43.216;27.946;2023-05-31T09:36:28;100850.19;;;36.79;26.58
38022;BME280;23832;43.216;27.946;2023-05-31T09:38:33;100843.50;;;37.16;26.15
38022;BME280;23832;43.216;27.946;2023-05-31T09:40:35;100851.59;;;37.25;26.67
38022;BME280;23832;43.216;27.946;2023-05-31T09:42:37;100838.16;;;36.83;27.35
38022;BME280;23832;43.216;27.946;2023-05-31T09:44:39;100835.72;;;37.74;26.34
38022;BME280;23832;43.216;27.946;2023-05-31T09:46:48;100842.88;;;36.95;26.58
38022;BME280;23832;43.216;27.946;2023-05-31T09:48:59;100840.56;;;36.48;26.97
38022;BME280;23832;43.216;27.946;2023-05-31T09:51:01;100844.34;;;35.98;27.30
38022;BME280;23832;43.216;27.946;2023-05-31T09:53:04;100839.28;;;36.33;26.70
38022;BME280;23832;43.216;27.946;2023-05-31T09:55:07;100837.06;;;35.48;27.93
38022;BME280;23832;43.216;27.946;2023-05-31T09:57:12;100838.38;;;35.21;28.11
38022;BME280;23832;43.216;27.946;2023-05-31T09:59:29;100841.06;;;34.41;28.74
38022;BME280;23832;43.216;27.946;2023-05-31T10:01:33;100843.75;;;33.86;28.70
38022;BME280;23832;43.216;27.946;2023-05-31T10:03:35;100838.72;;;34.14;28.19
38022;BME280;23832;43.216;27.946;2023-05-31T10:05:37;100833.44;;;35.15;28.14
38022;BME280;23832;43.216;27.946;2023-05-31T10:07:39;100837.16;;;35.31;28.16
38022;BME280;23832;43.216;27.946;2023-05-31T10:09:43;100833.97;;;34.40;28.00
38022;BME280;23832;43.216;27.946;2023-05-31T10:11:46;100831.06;;;34.75;28.14
38022;BME280;23832;43.216;27.946;2023-05-31T10:13:49;100823.84;;;34.32;28.09
38022;BME280;23832;43.216;27.946;2023-05-31T10:15:51;100821.66;;;35.35;27.56
38022;BME280;23832;43.216;27.946;2023-05-31T10:17:57;100825.59;;;35.88;26.48
38022;BME280;23832;43.216;27.946;2023-05-31T10:20:01;100816.72;;;35.08;26.81
38022;BME280;23832;43.216;27.946;2023-05-31T10:22:06;100833.00;;;34.45;27.79
38022;BME280;23832;43.216;27.946;2023-05-31T10:24:09;100815.94;;;33.93;28.82
38022;BME280;23832;43.216;27.946;2023-05-31T10:26:16;100818.06;;;33.44;28.82
38022;BME280;23832;43.216;27.946;2023-05-31T10:28:19;100827.66;;;33.32;29.19